Time;durP1;ratioP1;P1;durP2;ratioP2;P2;SDS_P1;SDS_P2;PMS_P1;PMS_P2;Temp;Humidity;BMP_temperature;BMP_pressure;BME280_temperature;BME280_humidity;BME280_pressure;Samples;Min_cycle;Max_cycle;Signal;HPM_P1;HPM_P2
2023/02/22 00:01:06;;;;;;;22.00;6.60;;;;;;;4.60;79.17;100012.54;131442;1254;108277;-77
2023/02/22 00:04:14;;;;;;;23.30;7.40;;;;;;;4.60;78.96;100016.77;131412;1250;107532;-77
2023/02/22 00:07:22;;;;;;;22.60;6.90;;;;;;;4.64;78.77;100016.64;131329;1272;106258;-78
2023/02/22 00:10:29;;;;;;;21.20;6.10;;;;;;;4.62;79.11;100021.88;131045;1250;107198;-80
2023/02/22 00:13:34;;;;;;;21.80;7.10;;;;;;;4.58;79.16;100020.63;131072;1254;108605;-78
2023/02/22 00:16:40;;;;;;;26.30;6.80;;;;;;;4.58;79.40;100022.08;131237;1255;107474;-78
2023/02/22 00:19:48;;;;;;;27.10;9.20;;;;;;;4.55;79.71;100024.36;131175;1255;107536;-80
2023/02/22 00:22:54;;;;;;;24.10;8.80;;;;;;;4.56;79.61;100029.09;131123;1254;107515;-79
2023/02/22 00:26:01;;;;;;;24.20;8.00;;;;;;;4.57;79.55;100032.50;131106;1268;107545;-80
2023/02/22 00:29:07;;;;;;;25.70;7.50;;;;;;;4.61;79.42;100033.30;131263;1250;107432;-80
2023/02/22 00:32:14;;;;;;;24.80;7.70;;;;;;;4.64;79.45;100037.58;131436;1253;108646;-79
2023/02/22 00:35:22;;;;;;;26.50;7.50;;;;;;;4.61;79.73;100037.67;131277;1256;107501;-80
2023/02/22 00:38:28;;;;;;;28.90;7.50;;;;;;;4.55;79.75;100042.75;131476;1248;107481;-80
2023/02/22 00:41:33;;;;;;;22.40;6.60;;;;;;;4.55;79.94;100047.65;131512;1253;107428;-80
2023/02/22 00:44:39;;;;;;;20.20;6.90;;;;;;;4.54;79.82;100045.80;131420;1253;107510;-78
2023/02/22 00:47:45;;;;;;;21.00;6.30;;;;;;;4.59;79.60;100052.41;131440;1253;107538;-78
2023/02/22 00:50:54;;;;;;;27.10;9.00;;;;;;;4.59;79.76;100051.77;131295;1253;107586;-80
2023/02/22 00:53:59;;;;;;;22.50;7.50;;;;;;;4.59;79.38;100053.18;131542;1253;105806;-80
2023/02/22 00:57:05;;;;;;;23.90;9.20;;;;;;;4.60;79.31;100057.52;131453;1253;107492;-80
2023/02/22 01:00:18;;;;;;;21.20;7.00;;;;;;;4.58;79.93;100062.39;131401;1251;107540;-80
2023/02/22 01:03:23;;;;;;;17.50;6.40;;;;;;;4.52;79.67;100063.88;131272;1253;107518;-80
2023/02/22 01:06:29;;;;;;;20.80;6.60;;;;;;;4.55;79.77;100072.31;131196;1253;107541;-79
2023/02/22 01:09:38;;;;;;;21.10;7.30;;;;;;;4.63;79.67;100075.73;131205;1253;107616;-80
2023/02/22 01:12:44;;;;;;;24.20;6.70;;;;;;;4.66;79.64;100076.06;131354;1249;106703;-80
2023/02/22 01:15:49;;;;;;;25.20;7.60;;;;;;;4.66;79.72;100077.48;131332;1253;107456;-81
2023/02/22 01:18:55;;;;;;;29.30;8.80;;;;;;;4.59;79.64;100083.11;131257;1254;105577;-80
2023/02/22 01:22:00;;;;;;;35.40;9.50;;;;;;;4.52;79.50;100085.36;131320;1253;107520;-80
2023/02/22 01:25:07;;;;;;;23.10;6.80;;;;;;;4.46;79.78;100086.38;131335;1253;106775;-79
2023/02/22 01:28:13;;;;;;;32.30;9.20;;;;;;;4.33;80.28;100092.82;131246;1253;107528;-79
2023/02/22 01:31:18;;;;;;;23.50;6.90;;;;;;;4.20;80.61;100097.14;131364;1252;107426;-80
2023/02/22 01:34:25;;;;;;;29.00;8.10;;;;;;;4.09;80.36;100096.39;131343;1253;105543;-79
2023/02/22 01:37:31;;;;;;;16.10;5.30;;;;;;;4.07;80.62;100096.39;131156;1253;107467;-79
2023/02/22 01:40:40;;;;;;;27.90;7.40;;;;;;;4.07;80.41;100098.85;131237;1253;107463;-78
2023/02/22 01:43:46;;;;;;;24.90;6.30;;;;;;;4.09;81.17;100098.16;131158;1253;108117;-80
2023/02/22 01:46:53;;;;;;;20.30;7.10;;;;;;;4.08;80.98;100100.18;131374;1252;107537;-80
2023/02/22 01:49:58;;;;;;;23.30;7.30;;;;;;;4.07;81.01;100100.41;131374;1253;107490;-77
2023/02/22 01:53:06;;;;;;;18.30;5.50;;;;;;;4.04;81.27;100100.63;131212;1253;107501;-80
2023/02/22 01:56:13;;;;;;;19.80;6.30;;;;;;;4.04;81.35;100103.48;131494;1253;107558;-80
2023/02/22 01:59:20;;;;;;;15.80;5.20;;;;;;;4.05;81.76;100106.92;131392;1254;107554;-80
2023/02/22 02:02:27;;;;;;;22.70;6.10;;;;;;;4.08;81.59;100107.96;131226;1253;107282;-78
2023/02/22 02:05:34;;;;;;;25.40;6.10;;;;;;;4.11;81.74;100114.42;131335;1253;107525;-79
2023/02/22 02:08:50;;;;;;;18.70;5.90;;;;;;;4.10;81.78;100118.70;131226;1251;105817;-80
2023/02/22 02:11:59;;;;;;;21.10;6.30;;;;;;;4.08;82.01;100122.02;131196;1248;107558;-79
2023/02/22 02:15:24;;;;;;;16.60;5.10;;;;;;;4.06;81.87;100122.84;131412;1253;107415;-79
2023/02/22 02:18:31;;;;;;;15.90;5.40;;;;;;;4.02;82.41;100123.65;131242;1251;107542;-80
2023/02/22 02:21:54;;;;;;;20.10;5.50;;;;;;;4.03;82.29;100123.61;131335;1253;107459;-80
2023/02/22 02:25:28;;;;;;;17.20;5.00;;;;;;;4.04;83.14;100125.30;131218;1250;107496;-80
2023/02/22 02:29:05;;;;;;;16.00;5.60;;;;;;;4.05;82.58;100124.89;131345;1253;107516;-80
2023/02/22 02:32:27;;;;;;;21.50;5.50;;;;;;;4.03;82.78;100127.49;131253;1253;107489;-80
2023/02/22 02:35:46;;;;;;;18.90;5.60;;;;;;;3.99;82.66;100122.01;131322;1254;107486;-80
2023/02/22 02:38:59;;;;;;;24.60;5.90;;;;;;;3.89;83.36;100123.77;131352;1248;107523;-81
2023/02/22 02:42:10;;;;;;;15.20;5.00;;;;;;;3.83;82.86;100126.86;131327;1253;107396;-80
2023/02/22 02:45:22;;;;;;;18.50;5.00;;;;;;;3.80;83.14;100132.86;131239;1253;107526;-77
2023/02/22 02:48:32;;;;;;;16.60;5.90;;;;;;;3.79;83.02;100134.15;131147;1251;107235;-80
2023/02/22 02:51:40;;;;;;;23.20;6.70;;;;;;;3.83;82.93;100131.92;131298;1253;107434;-79
2023/02/22 02:54:48;;;;;;;19.70;5.60;;;;;;;3.84;82.89;100134.17;131326;1248;107495;-79
2023/02/22 02:57:54;;;;;;;16.10;4.60;;;;;;;3.79;83.09;100138.77;131257;1254;107485;-79
2023/02/22 03:01:03;;;;;;;17.70;5.70;;;;;;;3.75;82.88;100137.27;131247;1248;107535;-77
2023/02/22 03:04:22;;;;;;;18.30;5.90;;;;;;;3.74;82.98;100139.46;131253;1253;108667;-80
2023/02/22 03:07:54;;;;;;;19.20;5.70;;;;;;;3.71;82.93;100140.01;131302;1250;107235;-80
2023/02/22 03:11:13;;;;;;;18.40;5.40;;;;;;;3.73;82.87;100146.54;131355;1254;107177;-80
2023/02/22 03:14:27;;;;;;;19.10;6.50;;;;;;;3.79;82.68;100147.22;131276;1253;114917;-80
2023/02/22 03:17:44;;;;;;;20.50;5.70;;;;;;;3.81;82.94;100149.84;131315;1253;107569;-81
2023/02/22 03:20:57;;;;;;;20.30;5.90;;;;;;;3.80;83.04;100151.15;131379;1253;107255;-80
2023/02/22 03:24:09;;;;;;;16.90;6.10;;;;;;;3.78;82.86;100153.23;131347;1262;107283;-80
2023/02/22 03:27:23;;;;;;;18.40;5.40;;;;;;;3.73;83.31;100160.44;131291;1251;107576;-80
2023/02/22 03:30:36;;;;;;;17.90;5.80;;;;;;;3.72;82.97;100157.70;131264;1254;107489;-80
2023/02/22 03:33:46;;;;;;;19.80;4.90;;;;;;;3.71;83.04;100165.36;131423;1253;107509;-79
2023/02/22 03:36:57;;;;;;;15.30;4.90;;;;;;;3.72;82.89;100162.52;131147;1258;107366;-80
2023/02/22 03:40:12;;;;;;;17.80;5.50;;;;;;;3.70;82.73;100168.42;131405;1254;107485;-81
2023/02/22 03:43:29;;;;;;;12.50;5.10;;;;;;;3.68;82.70;100170.50;131408;1253;107350;-76
2023/02/22 03:46:39;;;;;;;16.90;5.20;;;;;;;3.66;82.54;100173.96;131170;1250;107376;-75
2023/02/22 03:49:51;;;;;;;13.70;5.00;;;;;;;3.58;82.37;100178.27;131234;1254;107536;-76
2023/02/22 03:52:59;;;;;;;14.20;5.20;;;;;;;3.51;82.42;100181.59;131227;1266;106532;-77
2023/02/22 03:56:11;;;;;;;13.40;4.90;;;;;;;3.41;82.54;100185.27;131302;1263;105637;-78
2023/02/22 03:59:17;;;;;;;13.50;5.00;;;;;;;3.31;82.48;100190.89;131197;1253;107444;-74
2023/02/22 04:02:23;;;;;;;11.10;4.30;;;;;;;3.30;82.49;100194.88;131130;1271;108677;-76
2023/02/22 04:05:30;;;;;;;11.10;4.20;;;;;;;3.33;82.40;100196.02;131185;1263;107539;-76
2023/02/22 04:09:00;;;;;;;12.00;4.90;;;;;;;3.32;82.31;100197.14;131160;1254;107452;-76
2023/02/22 04:12:16;;;;;;;12.10;4.40;;;;;;;3.34;82.10;100198.60;131079;1266;107257;-75
2023/02/22 04:15:36;;;;;;;12.30;5.10;;;;;;;3.36;82.00;100201.98;131246;1250;108815;-76
2023/02/22 04:18:44;;;;;;;11.30;5.20;;;;;;;3.33;81.85;100198.51;130959;1256;107486;-75
2023/02/22 04:21:51;;;;;;;12.00;5.50;;;;;;;3.30;81.79;100201.89;131139;1255;107607;-75
2023/02/22 04:25:01;;;;;;;14.10;4.90;;;;;;;3.29;81.94;100203.71;131110;1254;107613;-76
2023/02/22 04:28:07;;;;;;;9.50;3.90;;;;;;;3.20;81.75;100210.83;130953;1249;107460;-76
2023/02/22 04:31:18;;;;;;;11.90;4.00;;;;;;;3.15;81.73;100213.61;131107;1255;107572;-74
2023/02/22 04:34:24;;;;;;;14.60;4.70;;;;;;;3.16;81.76;100214.08;130967;1254;107545;-75
2023/02/22 04:37:29;;;;;;;11.60;4.70;;;;;;;3.13;81.74;100214.96;130969;1254;107506;-76
2023/02/22 04:40:35;;;;;;;11.10;4.20;;;;;;;3.14;81.66;100219.46;131019;1249;107444;-75
2023/02/22 04:43:42;;;;;;;11.20;4.30;;;;;;;3.12;81.50;100221.05;130999;1255;107634;-76
2023/02/22 04:46:56;;;;;;;10.70;4.10;;;;;;;3.10;81.40;100224.38;131029;1255;107329;-77
2023/02/22 04:50:02;;;;;;;9.70;4.20;;;;;;;3.07;81.44;100221.25;131022;1251;107588;-75
2023/02/22 04:53:09;;;;;;;11.50;5.00;;;;;;;3.12;81.62;100226.62;130946;1263;108676;-75
2023/02/22 04:56:18;;;;;;;11.00;4.60;;;;;;;3.20;81.44;100228.94;130980;1260;107533;-76
2023/02/22 04:59:24;;;;;;;10.10;3.80;;;;;;;3.27;81.43;100228.08;131014;1257;107813;-75
2023/02/22 05:02:38;;;;;;;11.00;3.80;;;;;;;3.32;81.17;100229.15;131472;1264;107478;-75
2023/02/22 05:05:45;;;;;;;10.60;5.60;;;;;;;3.26;80.97;100226.91;131500;1253;107566;-74
2023/02/22 05:08:52;;;;;;;11.80;4.40;;;;;;;3.19;81.19;100222.33;131415;1254;107504;-74
2023/02/22 05:11:57;;;;;;;11.40;4.50;;;;;;;3.09;81.12;100226.35;131226;1263;106270;-76
2023/02/22 05:15:03;;;;;;;16.50;7.10;;;;;;;3.04;81.27;100226.52;131238;1253;107560;-76
2023/02/22 05:18:08;;;;;;;13.50;6.20;;;;;;;3.03;81.38;100234.70;131217;1251;106581;-75
2023/02/22 05:21:14;;;;;;;12.60;5.60;;;;;;;3.04;81.35;100238.46;131335;1253;107572;-76
2023/02/22 05:24:19;;;;;;;21.30;9.70;;;;;;;2.99;81.14;100247.57;131195;1254;107347;-77
2023/02/22 05:27:25;;;;;;;64.90;26.40;;;;;;;2.92;81.28;100247.18;131273;1253;107618;-75
2023/02/22 05:30:33;;;;;;;38.70;17.40;;;;;;;2.88;81.26;100246.73;131232;1254;107511;-75
2023/02/22 05:33:39;;;;;;;84.00;32.80;;;;;;;2.86;81.40;100248.46;131281;1250;107026;-77
2023/02/22 05:36:45;;;;;;;143.10;47.90;;;;;;;2.88;81.55;100251.30;131321;1261;108581;-76
2023/02/22 05:39:50;;;;;;;47.40;19.60;;;;;;;2.94;81.51;100254.77;131211;1254;107520;-75
2023/02/22 05:42:57;;;;;;;70.90;27.20;;;;;;;3.02;81.37;100256.55;131263;1259;107479;-78
2023/02/22 05:46:02;;;;;;;95.90;33.70;;;;;;;3.05;81.36;100262.17;131303;1253;107554;-79
2023/02/22 05:49:08;;;;;;;20.90;9.40;;;;;;;2.99;81.18;100264.67;131205;1250;107332;-78
2023/02/22 05:52:14;;;;;;;18.00;7.50;;;;;;;2.91;81.29;100268.71;131204;1248;107234;-78
2023/02/22 05:55:21;;;;;;;14.10;5.80;;;;;;;2.90;81.25;100270.70;131317;1254;107456;-78
2023/02/22 05:58:27;;;;;;;21.40;11.40;;;;;;;2.91;81.32;100274.34;131348;1248;107353;-80
2023/02/22 06:01:32;;;;;;;16.00;7.30;;;;;;;2.87;81.22;100278.06;131428;1261;108578;-78
2023/02/22 06:04:38;;;;;;;25.10;13.60;;;;;;;2.83;81.05;100286.30;131217;1261;107617;-80
2023/02/22 06:07:44;;;;;;;20.40;10.20;;;;;;;2.88;81.31;100286.14;131157;1271;107227;-80
2023/02/22 06:10:50;;;;;;;21.40;11.30;;;;;;;3.01;81.23;100290.34;131173;1254;106540;-78
2023/02/22 06:13:55;;;;;;;17.40;7.60;;;;;;;3.16;81.22;100293.34;131330;1253;107493;-78
2023/02/22 06:17:01;;;;;;;18.10;8.50;;;;;;;3.26;80.88;100298.88;131156;1253;105680;-79
2023/02/22 06:20:08;;;;;;;21.10;10.60;;;;;;;3.35;81.11;100301.58;131256;1254;107520;-79
2023/02/22 06:23:13;;;;;;;17.70;8.70;;;;;;;3.44;80.89;100301.69;131130;1254;107534;-80
2023/02/22 06:26:19;;;;;;;14.00;6.30;;;;;;;3.48;80.67;100302.59;131055;1254;107658;-80
2023/02/22 06:29:25;;;;;;;19.60;9.30;;;;;;;3.53;80.78;100302.44;131102;1250;107535;-80
2023/02/22 06:32:31;;;;;;;22.70;11.10;;;;;;;3.62;80.81;100304.31;131552;1253;107505;-79
2023/02/22 06:35:37;;;;;;;23.80;10.90;;;;;;;3.67;80.74;100305.88;131494;1254;107353;-80
2023/02/22 06:38:42;;;;;;;20.90;9.60;;;;;;;3.67;80.55;100307.30;131562;1254;107515;-80
2023/02/22 06:41:50;;;;;;;93.30;31.30;;;;;;;3.70;80.56;100312.73;131547;1261;107552;-79
2023/02/22 06:44:55;;;;;;;117.50;67.80;;;;;;;3.69;80.06;100322.80;131469;1262;108563;-78
2023/02/22 06:48:01;;;;;;;113.60;66.00;;;;;;;3.68;80.37;100327.21;131441;1248;107524;-80
2023/02/22 06:51:08;;;;;;;338.40;203.30;;;;;;;3.70;80.43;100325.71;131522;1254;107611;-81
2023/02/22 06:54:14;;;;;;;128.90;75.00;;;;;;;3.68;80.25;100327.58;131533;1251;107613;-80
2023/02/22 06:57:20;;;;;;;90.30;51.10;;;;;;;3.67;80.28;100333.48;131632;1248;107389;-79
2023/02/22 07:00:27;;;;;;;28.50;15.80;;;;;;;3.66;80.40;100336.52;131445;1261;107664;-81
2023/02/22 07:03:33;;;;;;;17.20;9.00;;;;;;;3.74;80.26;100337.39;131618;1254;107473;-81
2023/02/22 07:06:38;;;;;;;18.30;9.20;;;;;;;3.79;80.19;100340.93;131398;1253;107574;-80
2023/02/22 07:09:48;;;;;;;15.40;8.30;;;;;;;3.82;80.19;100339.96;131288;1255;107673;-79
2023/02/22 07:12:57;;;;;;;20.10;9.70;;;;;;;3.89;79.84;100344.08;131185;1256;107372;-80
2023/02/22 07:16:03;;;;;;;18.70;10.20;;;;;;;3.84;79.69;100344.77;131104;1260;107531;-80
2023/02/22 07:19:09;;;;;;;16.60;8.50;;;;;;;3.83;80.14;100346.44;131184;1256;107575;-80
2023/02/22 07:22:16;;;;;;;25.60;12.40;;;;;;;3.88;79.98;100348.71;131266;1253;106847;-78
2023/02/22 07:25:22;;;;;;;20.20;9.00;;;;;;;3.86;79.63;100352.77;130989;1263;107478;-79
2023/02/22 07:28:28;;;;;;;16.50;8.20;;;;;;;3.85;79.68;100361.98;131346;1261;107356;-80
2023/02/22 07:31:38;;;;;;;13.00;7.20;;;;;;;3.89;79.56;100360.26;131320;1254;107527;-80
2023/02/22 07:34:44;;;;;;;15.30;6.70;;;;;;;4.00;79.97;100363.38;131229;1256;107487;-80
2023/02/22 07:37:49;;;;;;;11.30;6.10;;;;;;;4.18;79.90;100356.11;131235;1254;108654;-80
2023/02/22 07:40:56;;;;;;;11.70;6.30;;;;;;;4.32;79.68;100354.43;131214;1267;107223;-79
2023/02/22 07:44:02;;;;;;;13.60;7.10;;;;;;;4.36;79.05;100356.23;131319;1254;107637;-79
2023/02/22 07:47:09;;;;;;;14.50;6.70;;;;;;;4.30;78.53;100356.68;131165;1253;107522;-80
2023/02/22 07:50:16;;;;;;;12.20;6.60;;;;;;;4.33;79.53;100355.41;131346;1251;107398;-81
2023/02/22 07:53:24;;;;;;;9.40;5.80;;;;;;;4.47;79.07;100353.32;131274;1254;107608;-79
2023/02/22 07:56:29;;;;;;;14.00;5.80;;;;;;;4.51;79.32;100357.83;131104;1254;107383;-80
2023/02/22 07:59:35;;;;;;;11.10;5.80;;;;;;;4.53;79.01;100356.06;131201;1263;107378;-82
2023/02/22 08:02:41;;;;;;;10.00;5.90;;;;;;;4.53;78.42;100353.42;131485;1253;108092;-79
2023/02/22 08:05:50;;;;;;;10.90;6.10;;;;;;;4.52;78.64;100352.75;131290;1253;107557;-81
2023/02/22 08:08:55;;;;;;;11.40;6.10;;;;;;;4.53;78.60;100356.77;131523;1253;107359;-80
2023/02/22 08:12:01;;;;;;;11.90;6.30;;;;;;;4.63;78.90;100360.09;131570;1253;108774;-79
2023/02/22 08:15:10;;;;;;;15.50;7.90;;;;;;;4.83;78.82;100356.02;131459;1261;107520;-78
2023/02/22 08:18:17;;;;;;;11.00;7.00;;;;;;;4.94;78.01;100359.58;131477;1254;107582;-80
2023/02/22 08:21:23;;;;;;;10.90;6.40;;;;;;;4.97;77.94;100360.81;131437;1254;106800;-79
2023/02/22 08:24:29;;;;;;;12.90;7.10;;;;;;;4.99;78.03;100360.44;131327;1249;107441;-80
2023/02/22 08:27:34;;;;;;;14.90;8.50;;;;;;;5.11;78.51;100357.95;131345;1265;107496;-79
2023/02/22 08:30:41;;;;;;;12.00;7.00;;;;;;;5.29;78.19;100359.06;131165;1269;107231;-80
2023/02/22 08:33:49;;;;;;;12.80;8.00;;;;;;;5.43;77.99;100362.77;131524;1248;107572;-79
2023/02/22 08:36:55;;;;;;;19.50;11.90;;;;;;;5.56;78.09;100366.88;131405;1261;107583;-81
2023/02/22 08:40:01;;;;;;;14.70;8.00;;;;;;;5.67;77.88;100367.47;131358;1248;107594;-80
2023/02/22 08:43:07;;;;;;;19.60;10.60;;;;;;;5.74;77.42;100369.77;131377;1253;107283;-79
2023/02/22 08:46:12;;;;;;;13.50;7.90;;;;;;;5.83;77.36;100374.90;131394;1252;105410;-79
2023/02/22 08:49:19;;;;;;;16.80;9.80;;;;;;;5.90;76.36;100378.39;131335;1253;107450;-80
2023/02/22 08:52:25;;;;;;;10.90;7.10;;;;;;;5.92;77.03;100373.86;131290;1247;107443;-81
2023/02/22 08:55:34;;;;;;;7.50;4.70;;;;;;;6.02;76.87;100372.91;131305;1252;107423;-79
2023/02/22 08:58:40;;;;;;;13.80;10.40;;;;;;;6.12;76.62;100373.88;131316;1253;106663;-78
2023/02/22 09:01:45;;;;;;;14.70;10.20;;;;;;;6.13;76.33;100380.13;131291;1253;107496;-81
2023/02/22 09:04:51;;;;;;;7.70;5.60;;;;;;;6.11;75.94;100382.92;131264;1253;107484;-80
2023/02/22 09:07:56;;;;;;;8.40;4.40;;;;;;;6.15;75.39;100385.29;131174;1253;107236;-82
2023/02/22 09:11:02;;;;;;;7.20;5.30;;;;;;;6.07;74.61;100387.02;131129;1252;107408;-81
2023/02/22 09:14:07;;;;;;;7.50;4.10;;;;;;;6.03;75.04;100393.33;131045;1253;108728;-81
2023/02/22 09:17:13;;;;;;;6.30;4.00;;;;;;;6.01;75.13;100393.64;131147;1254;107404;-81
2023/02/22 09:20:20;;;;;;;6.90;4.90;;;;;;;6.04;75.04;100391.28;131234;1254;107193;-80
2023/02/22 09:23:26;;;;;;;11.40;7.60;;;;;;;6.02;75.04;100391.81;131058;1261;107495;-80
2023/02/22 09:26:32;;;;;;;12.10;7.70;;;;;;;6.04;75.42;100397.83;131185;1251;107572;-81
2023/02/22 09:29:38;;;;;;;8.90;5.80;;;;;;;6.05;74.95;100398.08;131200;1253;107566;-81
2023/02/22 09:32:43;;;;;;;8.30;4.50;;;;;;;6.07;74.43;100397.42;131289;1251;107456;-81
2023/02/22 09:35:50;;;;;;;7.10;3.80;;;;;;;6.05;74.40;100400.56;131203;1253;108385;-80
2023/02/22 09:38:57;;;;;;;8.40;4.30;;;;;;;6.05;74.16;100398.77;131128;1272;106516;-81
2023/02/22 09:42:09;;;;;;;9.90;7.40;;;;;;;5.97;73.04;100401.70;131169;1254;107551;-81
2023/02/22 09:45:20;;;;;;;7.70;4.10;;;;;;;5.77;73.30;100400.96;131136;1254;107561;-80
2023/02/22 09:48:26;;;;;;;7.10;4.40;;;;;;;5.71;73.95;100402.29;131164;1251;107338;-80
2023/02/22 09:51:40;;;;;;;5.90;3.70;;;;;;;5.67;73.58;100398.16;131180;1255;106859;-80
2023/02/22 09:54:50;;;;;;;8.50;4.90;;;;;;;5.73;74.28;100402.64;131111;1272;107230;-80
2023/02/22 09:58:00;;;;;;;9.10;4.00;;;;;;;5.71;71.90;100402.79;131212;1272;106320;-81
2023/02/22 10:01:16;;;;;;;12.90;6.40;;;;;;;5.52;71.92;100404.92;131213;1252;107393;-80
2023/02/22 10:04:29;;;;;;;8.70;4.30;;;;;;;5.48;73.00;100409.52;131256;1254;107446;-81
2023/02/22 10:07:41;;;;;;;10.90;6.80;;;;;;;5.55;72.80;100406.53;131330;1248;107400;-81
2023/02/22 10:10:51;;;;;;;;;;;;;;;5.56;72.66;100404.66;131365;1254;107388;-80
2023/02/22 10:14:09;;;;;;;9.20;4.80;;;;;;;5.70;73.47;100402.02;131454;1248;107588;-79
2023/02/22 10:17:26;;;;;;;7.30;4.30;;;;;;;5.96;72.88;100405.34;131331;1247;107376;-79
2023/02/22 10:20:45;;;;;;;6.30;4.20;;;;;;;5.96;71.07;100404.30;131291;1254;106552;-79
2023/02/22 10:24:03;;;;;;;6.60;3.90;;;;;;;5.92;72.17;100402.41;131399;1254;107576;-80
2023/02/22 10:27:17;;;;;;;7.40;4.20;;;;;;;6.01;72.89;100400.17;131333;1247;107506;-80
2023/02/22 10:30:27;;;;;;;7.70;4.60;;;;;;;6.18;72.97;100396.54;131376;1260;106910;-80
2023/02/22 10:33:37;;;;;;;8.10;4.70;;;;;;;6.31;71.40;100394.65;131342;1247;107461;-80
2023/02/22 10:36:45;;;;;;;6.90;3.50;;;;;;;6.33;71.90;100396.28;131332;1254;107408;-81
2023/02/22 10:39:53;;;;;;;7.30;3.90;;;;;;;6.36;72.32;100395.17;131406;1254;107473;-79
2023/02/22 10:43:00;;;;;;;6.10;3.30;;;;;;;6.37;70.17;100397.33;131348;1252;108659;-80
2023/02/22 10:46:12;;;;;;;4.90;3.00;;;;;;;6.22;71.01;100396.08;131371;1263;107490;-80
2023/02/22 10:49:23;;;;;;;5.90;3.30;;;;;;;6.11;70.14;100399.54;131362;1254;107499;-80
2023/02/22 10:52:32;;;;;;;6.10;3.10;;;;;;;6.09;71.07;100396.21;131326;1251;107452;-80
2023/02/22 10:56:12;;;;;;;5.70;3.30;;;;;;;6.02;70.11;100397.23;131279;1254;107676;-81
2023/02/22 10:59:31;;;;;;;5.40;3.60;;;;;;;5.91;70.30;100397.23;131190;1251;107625;-80
2023/02/22 11:02:37;;;;;;;5.00;3.30;;;;;;;5.68;67.88;100398.42;131131;1251;108275;-80
2023/02/22 11:05:43;;;;;;;5.60;3.50;;;;;;;5.52;69.53;100399.48;131044;1254;107579;-80
2023/02/22 11:08:50;;;;;;;5.10;3.50;;;;;;;5.51;70.42;100402.20;131120;1253;108644;-81
2023/02/22 11:12:11;;;;;;;5.10;3.60;;;;;;;5.48;69.23;100403.34;131457;1253;107051;-80
2023/02/22 11:15:28;;;;;;;7.00;3.80;;;;;;;5.36;69.35;100403.39;131277;1254;109868;-79
2023/02/22 11:18:35;;;;;;;7.00;4.10;;;;;;;5.30;69.39;100404.46;131150;1252;107546;-80
2023/02/22 11:21:42;;;;;;;6.30;4.40;;;;;;;5.25;69.70;100402.40;131295;1254;108573;-81
2023/02/22 11:24:50;;;;;;;7.70;4.50;;;;;;;5.25;69.62;100396.98;131312;1248;108637;-81
2023/02/22 11:28:06;;;;;;;6.90;4.70;;;;;;;5.18;68.58;100400.30;131408;1263;107195;-80
2023/02/22 11:31:16;;;;;;;6.60;4.60;;;;;;;5.10;69.48;100395.77;131335;1257;107234;-81
2023/02/22 11:34:33;;;;;;;7.10;4.70;;;;;;;5.10;68.90;100400.89;131273;1253;108647;-81
2023/02/22 11:37:38;;;;;;;9.90;6.50;;;;;;;4.98;67.78;100397.33;131395;1250;107405;-81
2023/02/22 11:40:44;;;;;;;9.20;5.60;;;;;;;4.90;68.67;100400.61;131452;1252;107480;-80
2023/02/22 11:43:53;;;;;;;6.30;4.00;;;;;;;4.92;68.42;100397.30;131292;1256;106554;-81
2023/02/22 11:47:05;;;;;;;7.60;4.40;;;;;;;4.92;68.86;100394.66;131135;1251;107597;-81
2023/02/22 11:50:18;;;;;;;7.00;4.20;;;;;;;4.92;67.26;100396.94;131267;1254;107574;-80
2023/02/22 11:53:31;;;;;;;7.30;4.50;;;;;;;4.92;68.05;100402.23;131143;1253;106277;-80
2023/02/22 11:56:40;;;;;;;6.30;3.50;;;;;;;4.98;68.44;100402.84;131155;1263;107521;-80
2023/02/22 11:59:58;;;;;;;6.00;3.70;;;;;;;5.07;67.28;100400.39;131240;1254;108671;-80
2023/02/22 12:03:25;;;;;;;5.50;3.40;;;;;;;5.12;67.23;100406.55;131317;1253;108706;-80
2023/02/22 12:06:43;;;;;;;5.90;3.50;;;;;;;5.19;66.80;100404.09;131367;1247;106491;-81
2023/02/22 12:09:57;;;;;;;27.70;22.00;;;;;;;5.22;67.29;100403.51;131341;1252;107449;-81
2023/02/22 12:13:18;;;;;;;9.70;6.90;;;;;;;5.33;67.72;100403.21;131383;1266;107242;-81
2023/02/22 12:16:33;;;;;;;14.60;10.20;;;;;;;5.40;67.06;100407.67;131706;1247;107456;-81
2023/02/22 12:19:43;;;;;;;14.10;8.00;;;;;;;5.33;66.58;100412.20;131707;1247;106155;-78
2023/02/22 12:22:56;;;;;;;30.90;13.20;;;;;;;5.32;67.27;100410.90;131345;1264;107593;-81
2023/02/22 12:26:07;;;;;;;6.90;4.00;;;;;;;5.32;66.07;100416.16;131346;1266;107235;-81
2023/02/22 12:29:21;;;;;;;5.40;3.40;;;;;;;5.30;67.26;100420.23;131496;1254;107540;-80
2023/02/22 12:32:37;;;;;;;6.20;3.50;;;;;;;5.40;67.33;100418.38;131327;1248;107426;-81
2023/02/22 12:35:48;;;;;;;7.50;5.70;;;;;;;5.46;67.21;100420.08;131345;1254;107603;-79
2023/02/22 12:39:03;;;;;;;7.40;5.40;;;;;;;5.45;66.73;100419.73;131402;1252;108540;-79
2023/02/22 12:42:16;;;;;;;6.90;4.00;;;;;;;5.44;66.65;100413.63;131394;1248;107456;-81
2023/02/22 12:45:30;;;;;;;7.30;5.00;;;;;;;5.42;66.90;100418.23;131361;1253;107219;-80
2023/02/22 12:48:45;;;;;;;13.20;8.20;;;;;;;5.33;66.35;100424.19;131365;1253;107226;-80
2023/02/22 12:51:57;;;;;;;11.60;6.60;;;;;;;5.19;65.74;100425.96;131353;1252;107463;-79
2023/02/22 12:55:09;;;;;;;11.60;8.30;;;;;;;5.03;65.38;100427.48;131300;1247;107418;-81
2023/02/22 12:58:24;;;;;;;12.10;7.40;;;;;;;4.96;65.59;100428.05;131408;1253;107226;-80
2023/02/22 13:01:36;;;;;;;10.40;7.50;;;;;;;4.94;65.45;100426.90;131312;1248;107498;-80
2023/02/22 13:04:42;;;;;;;10.10;6.60;;;;;;;5.01;65.68;100425.00;131337;1253;107327;-78
2023/02/22 13:07:58;;;;;;;6.50;4.70;;;;;;;5.04;65.24;100425.46;131437;1248;107365;-78
2023/02/22 13:11:14;;;;;;;8.20;5.20;;;;;;;5.05;65.61;100428.78;131470;1248;107374;-79
2023/02/22 13:14:38;;;;;;;8.70;5.20;;;;;;;5.14;65.89;100427.55;131478;1249;108321;-82
2023/02/22 13:17:57;;;;;;;6.90;4.90;;;;;;;5.23;66.15;100432.02;131306;1255;107238;-81
2023/02/22 13:21:11;;;;;;;10.30;6.00;;;;;;;5.24;65.37;100436.04;131254;1250;107378;-81
2023/02/22 13:24:24;;;;;;;9.30;5.60;;;;;;;5.22;66.15;100439.51;131179;1264;107270;-80
2023/02/22 13:27:38;;;;;;;10.80;6.60;;;;;;;5.24;66.10;100442.02;131498;1250;108573;-81
2023/02/22 13:30:51;;;;;;;13.00;7.10;;;;;;;5.25;66.35;100443.54;131390;1254;108706;-80
2023/02/22 13:34:16;;;;;;;11.90;6.80;;;;;;;5.16;64.69;100448.56;131336;1247;107398;-81
2023/02/22 13:37:41;;;;;;;10.10;6.10;;;;;;;5.04;65.39;100444.15;131242;1248;106968;-80
2023/02/22 13:41:06;;;;;;;10.90;6.20;;;;;;;4.98;65.24;100452.55;131277;1262;107493;-80
2023/02/22 13:44:31;;;;;;;10.90;6.10;;;;;;;4.89;65.63;100453.71;131395;1249;107481;-80
2023/02/22 13:48:09;;;;;;;9.80;6.20;;;;;;;4.83;65.63;100456.80;131286;1249;107364;-81
2023/02/22 13:51:31;;;;;;;11.50;6.60;;;;;;;4.74;65.84;100463.80;131387;1254;107506;-80
2023/02/22 13:54:41;;;;;;;53.30;25.60;;;;;;;4.67;65.67;100466.42;131437;1250;107364;-80
2023/02/22 13:57:50;;;;;;;43.90;21.70;;;;;;;4.61;65.76;100471.27;131408;1251;107359;-78
2023/02/22 14:00:58;;;;;;;14.20;8.00;;;;;;;4.53;65.57;100472.34;131382;1248;107361;-81
2023/02/22 14:04:21;;;;;;;15.50;8.10;;;;;;;4.44;65.38;100473.65;131325;1248;107392;-80
2023/02/22 14:07:53;;;;;;;10.40;6.70;;;;;;;4.30;65.11;100474.44;131544;1247;107355;-82
2023/02/22 14:11:00;;;;;;;24.10;14.60;;;;;;;4.26;65.65;100466.52;131070;1253;107503;-81
2023/02/22 14:14:19;;;;;;;15.20;9.20;;;;;;;4.33;65.84;100465.83;131385;1253;107525;-80
2023/02/22 14:17:29;;;;;;;22.30;12.60;;;;;;;4.35;65.44;100465.34;131423;1253;108137;-80
2023/02/22 14:20:36;;;;;;;17.70;9.00;;;;;;;4.36;65.51;100464.59;131402;1248;107385;-80
2023/02/22 14:23:44;;;;;;;12.40;7.10;;;;;;;4.37;65.59;100465.90;131421;1252;105674;-80